createdAt,value
2022-12-26T00:29:23.262Z,76805.75
2022-12-26T00:34:48.020Z,76811.75
2022-12-26T00:40:13.851Z,76807.75
2022-12-26T00:45:41.225Z,76795.78
2022-12-26T00:51:06.448Z,76797.78
2022-12-26T00:56:31.211Z,76797.78
2022-12-26T01:01:58.898Z,76823.72
2022-12-26T01:07:23.759Z,76843.69
2022-12-26T01:12:48.510Z,76851.69
2022-12-26T01:18:15.923Z,76811.75
2022-12-26T01:23:40.752Z,76837.72
2022-12-26T01:29:05.552Z,76817.75
2022-12-26T01:34:32.868Z,76827.72
2022-12-26T01:39:57.702Z,76831.72
2022-12-26T01:45:28.556Z,76839.69
2022-12-26T01:50:59.513Z,76829.72
2022-12-26T01:56:26.664Z,76845.69
2022-12-26T02:01:54.220Z,76853.69
2022-12-26T02:07:25.733Z,76875.66
2022-12-26T02:12:51.137Z,76863.66
2022-12-26T02:18:15.973Z,76873.66
2022-12-26T02:23:55.969Z,76863.66
2022-12-26T02:29:31.779Z,76871.66
2022-12-26T02:35:04.003Z,76891.63
2022-12-26T02:40:36.024Z,76887.63
2022-12-26T02:46:19.625Z,76893.63
2022-12-26T02:52:05.967Z,76943.53
2022-12-26T02:57:46.563Z,76947.53
2022-12-26T03:03:26.912Z,76933.56
2022-12-26T03:09:10.446Z,76915.59
2022-12-26T03:14:38.921Z,76943.53
2022-12-26T03:20:06.367Z,76945.53
2022-12-26T03:25:52.445Z,76931.56
2022-12-26T03:31:18.095Z,76935.56
2022-12-26T03:36:48.244Z,76935.56
2022-12-26T03:42:44.639Z,76947.53
2022-12-26T03:48:25.846Z,76931.56
2022-12-26T03:54:05.868Z,76921.56
2022-12-26T03:59:49.345Z,76911.59
2022-12-26T04:05:29.151Z,76919.59
2022-12-26T04:11:09.269Z,76899.63
2022-12-26T04:16:50.943Z,76923.56
2022-12-26T04:22:30.184Z,76907.59
2022-12-26T04:28:07.818Z,76915.59
2022-12-26T04:33:51.331Z,76927.56
2022-12-26T04:39:29.639Z,76977.50
2022-12-26T04:44:55.027Z,76971.50
2022-12-26T04:50:22.378Z,76983.47
2022-12-26T04:55:47.283Z,76965.50
2022-12-26T05:01:24.578Z,76987.47
2022-12-26T05:07:04.732Z,76969.50
2022-12-26T05:12:29.633Z,76967.50
2022-12-26T05:18:07.378Z,76987.47
2022-12-26T05:23:59.175Z,76999.47
2022-12-26T05:29:23.891Z,76975.50
2022-12-26T05:34:48.710Z,77019.44
2022-12-26T05:40:16.230Z,77019.44
2022-12-26T05:45:41.025Z,77023.41
2022-12-26T05:51:06.520Z,77011.44
2022-12-26T05:56:34.071Z,77011.44
2022-12-26T06:01:58.968Z,76991.47
2022-12-26T06:07:23.901Z,76987.47
2022-12-26T06:12:51.254Z,77007.44
2022-12-26T06:18:16.120Z,77005.44
2022-12-26T06:23:41.222Z,77011.44
2022-12-26T06:29:08.572Z,77007.44
2022-12-26T06:34:33.427Z,77015.44
2022-12-26T06:39:58.146Z,77055.38
2022-12-26T06:45:25.483Z,77043.38
2022-12-26T06:50:50.309Z,77063.34
2022-12-26T06:56:16.266Z,77095.31
2022-12-26T07:01:43.691Z,77083.31
2022-12-26T07:07:08.574Z,77075.34
2022-12-26T07:12:33.323Z,77069.34
2022-12-26T07:18:00.676Z,77075.34
2022-12-26T07:23:25.494Z,77081.34
2022-12-26T07:28:50.403Z,77083.31
2022-12-26T07:34:18.102Z,77075.34
2022-12-26T07:39:42.809Z,77091.31
2022-12-26T07:45:08.052Z,77107.28
2022-12-26T07:50:35.368Z,77059.38
2022-12-26T07:56:01.460Z,77091.31
2022-12-26T08:01:26.284Z,77083.31
2022-12-26T08:06:53.683Z,77095.31
2022-12-26T08:12:21.625Z,77063.34
2022-12-26T08:17:46.748Z,77051.38
2022-12-26T08:23:14.239Z,77059.38
2022-12-26T08:28:39.290Z,76983.47
2022-12-26T08:34:04.101Z,76979.50
2022-12-26T08:39:31.527Z,77047.38
2022-12-26T08:44:56.640Z,77053.38
2022-12-26T08:50:21.389Z,76999.47
2022-12-26T08:55:48.827Z,76973.50
2022-12-26T09:01:14.748Z,76955.53
2022-12-26T09:06:41.314Z,76967.50
2022-12-26T09:12:08.961Z,76907.59
2022-12-26T09:17:33.768Z,76871.66
2022-12-26T09:22:58.560Z,76919.59
2022-12-26T09:28:25.922Z,76915.59
2022-12-26T09:33:51.124Z,76903.59
2022-12-26T09:39:15.859Z,76903.59
2022-12-26T09:44:48.688Z,76943.53
2022-12-26T09:50:16.005Z,76977.50
2022-12-26T09:55:43.295Z,77027.41
2022-12-26T10:01:11.645Z,77047.38
2022-12-26T10:06:39.791Z,77067.34
2022-12-26T10:12:18.958Z,77075.34
2022-12-26T10:17:49.849Z,77083.31
2022-12-26T10:23:32.394Z,77083.31
2022-12-26T10:28:59.427Z,77071.34
2022-12-26T10:34:28.993Z,77043.38
2022-12-26T10:39:57.260Z,77023.41
2022-12-26T10:45:28.302Z,77063.34
2022-12-26T10:50:55.716Z,77081.34
2022-12-26T10:56:22.720Z,77133.25
2022-12-26T11:01:50.087Z,77171.19
2022-12-26T11:07:20.296Z,77141.25
2022-12-26T11:12:50.208Z,77123.28
2022-12-26T11:18:20.141Z,77151.22
2022-12-26T11:23:47.524Z,77167.19
2022-12-26T11:29:14.436Z,77103.28
2022-12-26T11:34:45.993Z,76945.53
2022-12-26T11:40:18.872Z,77057.38
2022-12-26T11:45:44.944Z,77127.25
2022-12-26T11:51:10.103Z,77143.25
2022-12-26T11:56:37.420Z,77181.19
2022-12-26T12:02:17.270Z,77171.19
2022-12-26T12:07:59.922Z,77193.16
2022-12-26T12:13:39.799Z,77167.19
2022-12-26T12:25:06.655Z,77087.31
2022-12-26T12:30:37.855Z,77095.31
2022-12-26T12:41:45.114Z,77199.16
2022-12-26T12:47:16.737Z,77115.28
2022-12-26T12:52:46.349Z,76919.59
2022-12-26T12:58:15.173Z,76923.56
2022-12-26T13:03:45.982Z,77079.34
2022-12-26T13:09:15.202Z,77219.13
2022-12-26T13:14:43.353Z,77177.19
2022-12-26T13:20:20.955Z,77153.22
2022-12-26T13:25:47.502Z,77127.25
2022-12-26T13:31:12.449Z,77153.22
2022-12-26T13:36:41.972Z,77087.31
2022-12-26T13:42:30.633Z,77135.25
2022-12-26T13:47:55.359Z,77295.00
2022-12-26T13:53:33.079Z,77346.94
2022-12-26T13:59:01.203Z,77372.91
2022-12-26T14:10:01.442Z,77418.84
2022-12-26T14:15:30.117Z,77466.75
2022-12-26T14:21:00.373Z,77514.69
2022-12-26T14:26:34.018Z,77560.63
2022-12-26T14:32:05.924Z,77610.56
2022-12-26T14:37:35.400Z,77640.53
2022-12-26T14:43:14.172Z,77640.53
2022-12-26T14:48:49.835Z,77630.53
2022-12-26T14:54:50.868Z,77642.50
2022-12-26T15:00:31.007Z,77654.50
2022-12-26T15:06:04.672Z,77666.47
2022-12-26T15:11:41.699Z,77708.44
2022-12-26T15:17:12.805Z,77724.41
2022-12-26T15:22:52.569Z,77734.38
2022-12-26T15:28:32.448Z,77780.31
2022-12-26T15:34:01.582Z,77824.28
2022-12-26T15:39:34.025Z,77852.22
2022-12-26T15:45:05.097Z,77870.22
2022-12-26T15:50:32.151Z,77890.19
2022-12-26T15:56:06.581Z,77914.16
2022-12-26T16:01:40.082Z,77958.09
2022-12-26T16:07:10.932Z,77950.09
2022-12-26T16:12:29.413Z,77988.06
2022-12-26T16:17:54.215Z,78012.03
2022-12-26T16:23:20.465Z,78034.00
2022-12-26T16:28:48.241Z,78061.97
2022-12-26T16:34:17.197Z,78085.94
2022-12-26T16:39:42.121Z,78113.91
2022-12-26T16:45:20.577Z,78117.88
2022-12-26T16:50:48.393Z,78133.88
2022-12-26T16:56:23.743Z,78137.88
2022-12-26T17:01:54.144Z,78149.84
2022-12-26T17:07:19.292Z,78155.84
2022-12-26T17:12:44.282Z,78189.81
2022-12-26T17:18:23.836Z,78199.78
2022-12-26T17:24:07.755Z,78227.75
2022-12-26T17:29:49.540Z,78219.75
2022-12-26T17:35:16.748Z,78241.72
2022-12-26T17:40:44.426Z,78245.72
2022-12-26T17:46:10.319Z,78259.72
2022-12-26T17:51:35.169Z,78269.69
2022-12-26T17:57:02.589Z,78273.69
2022-12-26T18:02:27.513Z,78295.66
2022-12-26T18:07:53.359Z,78309.66
2022-12-26T18:13:20.749Z,78321.63
2022-12-26T18:18:47.084Z,78327.63
2022-12-26T18:24:13.328Z,78333.63
2022-12-26T18:29:42.234Z,78337.63
2022-12-26T18:35:07.354Z,78345.59
2022-12-26T18:40:34.744Z,78337.63
2022-12-26T18:46:02.319Z,78317.63
2022-12-26T18:51:27.964Z,78271.69
2022-12-26T18:56:52.688Z,78239.72
2022-12-26T19:02:21.500Z,78229.75
2022-12-26T19:07:48.386Z,78213.78
2022-12-26T19:13:13.354Z,78229.75
2022-12-26T19:18:40.876Z,78269.69
2022-12-26T19:24:05.648Z,78301.66
2022-12-26T19:29:30.528Z,78339.63
2022-12-26T19:34:57.909Z,78315.66
2022-12-26T19:40:25.230Z,78289.69
2022-12-26T19:45:50.300Z,78289.69
2022-12-26T19:51:18.879Z,78301.66
2022-12-26T19:56:43.691Z,78289.69
2022-12-26T20:02:08.513Z,78277.69
2022-12-26T20:07:35.878Z,78313.66
2022-12-26T20:13:00.654Z,78329.63
2022-12-26T20:18:25.419Z,78337.63
2022-12-26T20:23:53.164Z,78309.66
2022-12-26T20:29:18.403Z,78311.66
2022-12-26T20:34:43.208Z,78337.63
2022-12-26T20:40:11.293Z,78361.59
2022-12-26T20:45:36.069Z,78361.59
2022-12-26T20:51:01.411Z,78381.56
2022-12-26T20:56:28.768Z,78401.53
2022-12-26T21:01:53.580Z,78417.53
2022-12-26T21:07:18.431Z,78391.56
2022-12-26T21:12:45.909Z,78389.56
2022-12-26T21:18:10.711Z,78373.56
2022-12-26T21:23:35.422Z,78365.59
2022-12-26T21:29:03.566Z,78365.59
2022-12-26T21:34:30.662Z,78385.56
2022-12-26T21:39:55.470Z,78381.56
2022-12-26T21:45:22.891Z,78393.56
2022-12-26T21:50:47.744Z,78437.50
2022-12-26T21:56:13.519Z,78461.47
2022-12-26T22:01:41.018Z,78453.47
2022-12-26T22:07:05.983Z,78449.47
2022-12-26T22:12:43.175Z,78477.44
2022-12-26T22:18:11.574Z,78499.44
2022-12-26T22:23:36.726Z,78511.41
2022-12-26T22:29:01.579Z,78509.41
2022-12-26T22:34:28.947Z,78533.38
2022-12-26T22:39:53.703Z,78529.38
2022-12-26T22:45:18.520Z,78541.38
2022-12-26T22:50:47.165Z,78525.41
2022-12-26T22:56:12.311Z,78517.41
2022-12-26T23:01:37.210Z,78545.38
2022-12-26T23:07:05.067Z,62172.66
2022-12-26T23:12:42.768Z,62172.66
2022-12-26T23:18:28.787Z,62172.66
2022-12-26T23:23:56.203Z,62172.66
2022-12-26T23:29:34.456Z,62172.66
2022-12-26T23:34:59.223Z,62172.66
2022-12-26T23:40:26.592Z,62172.66
2022-12-26T23:45:51.335Z,62172.66
2022-12-26T23:51:16.147Z,62172.66
